Time;durP1;ratioP1;P1;durP2;ratioP2;P2;SDS_P1;SDS_P2;PMS_P1;PMS_P2;Temp;Humidity;BMP_temperature;BMP_pressure;BME280_temperature;BME280_humidity;BME280_pressure;Samples;Min_cycle;Max_cycle;Signal;HPM_P1;HPM_P2
2023/10/03 00:00:34;;;;;;;48.20;21.20;;;13.40;99.90;;;;;;4881876;29;20052;-68
2023/10/03 00:03:08;;;;;;;46.58;22.27;;;13.40;99.90;;;;;;4894803;29;20044;-69
2023/10/03 00:05:35;;;;;;;44.30;19.08;;;13.30;99.90;;;;;;4878543;29;20076;-65
2023/10/03 00:08:06;;;;;;;41.35;19.00;;;13.30;99.90;;;;;;4880974;29;20147;-70
2023/10/03 00:10:38;;;;;;;42.38;19.02;;;13.40;99.90;;;;;;4878536;29;20053;-68
2023/10/03 00:13:11;;;;;;;48.05;20.60;;;13.40;99.90;;;;;;4893091;29;20072;-68
2023/10/03 00:15:43;;;;;;;46.08;21.88;;;13.40;99.90;;;;;;4894112;29;20050;-70
2023/10/03 00:18:15;;;;;;;54.10;21.80;;;13.40;99.90;;;;;;4882822;29;20051;-68
2023/10/03 00:20:42;;;;;;;45.03;20.48;;;13.40;99.90;;;;;;4879962;29;20815;-68
2023/10/03 00:23:15;;;;;;;44.45;20.30;;;13.40;99.90;;;;;;4884811;29;20049;-70
2023/10/03 00:25:42;;;;;;;44.00;21.23;;;13.40;99.90;;;;;;4880510;29;20120;-68
2023/10/03 00:28:14;;;;;;;44.40;21.75;;;13.30;99.90;;;;;;4874665;29;20051;-68
2023/10/03 00:30:44;;;;;;;44.67;21.02;;;13.30;99.90;;;;;;4887569;29;20052;-69
2023/10/03 00:33:17;;;;;;;44.38;20.58;;;13.30;99.90;;;;;;4878070;29;20052;-69
2023/10/03 00:35:50;;;;;;;45.03;21.23;;;13.30;99.90;;;;;;4867788;29;20104;-67
2023/10/03 00:38:22;;;;;;;42.45;19.48;;;13.20;99.90;;;;;;4864060;29;20044;-68
2023/10/03 00:40:50;;;;;;;42.28;18.73;;;13.20;99.90;;;;;;4866630;29;20036;-68
2023/10/03 00:43:24;;;;;;;42.67;18.48;;;13.20;99.90;;;;;;4878244;29;20067;-69
2023/10/03 00:45:51;;;;;;;37.50;17.20;;;13.30;99.90;;;;;;4876396;29;20487;-69
2023/10/03 00:48:26;;;;;;;44.92;20.30;;;13.50;99.90;;;;;;4879768;29;20056;-68
2023/10/03 00:50:59;;;;;;;45.03;20.92;;;13.50;99.90;;;;;;4875483;29;20127;-68
2023/10/03 00:53:26;;;;;;;46.53;21.27;;;13.50;99.90;;;;;;4896283;29;20045;-68
2023/10/03 00:56:00;;;;;;;44.55;19.10;;;13.50;99.90;;;;;;4875750;29;20539;-68
2023/10/03 00:58:31;;;;;;;44.92;19.80;;;13.50;99.90;;;;;;4877034;29;20048;-68
2023/10/03 01:01:03;;;;;;;46.92;19.02;;;13.40;99.90;;;;;;4874973;29;20055;-68
2023/10/03 01:03:37;;;;;;;39.63;17.77;;;13.40;99.90;;;;;;4879401;29;20052;-68
2023/10/03 01:06:10;;;;;;;42.20;19.25;;;13.30;99.90;;;;;;4889668;29;20053;-69
2023/10/03 01:08:46;;;;;;;44.72;20.90;;;13.30;99.90;;;;;;4895342;29;20583;-68
2023/10/03 01:11:18;;;;;;;41.28;19.60;;;13.20;99.90;;;;;;4883134;29;20074;-69
2023/10/03 01:13:56;;;;;;;41.88;18.58;;;13.20;99.90;;;;;;4895175;29;20470;-69
2023/10/03 01:16:33;;;;;;;44.95;19.45;;;13.20;99.90;;;;;;4864950;29;20491;-68
2023/10/03 01:19:14;;;;;;;47.30;20.40;;;13.20;99.90;;;;;;4864093;29;20537;-68
2023/10/03 01:21:49;;;;;;;46.95;20.42;;;13.10;99.90;;;;;;4879949;29;20044;-68
2023/10/03 01:24:24;;;;;;;39.90;17.50;;;13.10;99.90;;;;;;4857874;29;20119;-69
2023/10/03 01:26:56;;;;;;;41.80;19.83;;;13.10;99.90;;;;;;4893986;29;20052;-69
2023/10/03 01:29:28;;;;;;;43.33;19.45;;;13.10;99.90;;;;;;4897878;29;20474;-69
2023/10/03 01:31:55;;;;;;;42.65;19.35;;;13.00;99.90;;;;;;4877649;29;20049;-68
2023/10/03 01:34:27;;;;;;;49.08;21.15;;;13.00;99.90;;;;;;4894625;29;20076;-68
2023/10/03 01:37:01;;;;;;;;;;;13.00;99.90;;;;;;4865651;29;20040;-70
2023/10/03 01:39:33;;;;;;;44.92;20.52;;;13.00;99.90;;;;;;4884289;29;19923;-70
2023/10/03 01:42:07;;;;;;;47.45;21.60;;;13.00;99.90;;;;;;4890222;29;20076;-74
2023/10/03 01:44:39;;;;;;;51.22;22.00;;;12.90;99.90;;;;;;4895452;29;20055;-69
2023/10/03 01:47:11;;;;;;;43.42;19.60;;;12.90;99.90;;;;;;4898271;29;20418;-69
2023/10/03 01:49:45;;;;;;;47.38;21.92;;;12.90;99.90;;;;;;4894578;29;20501;-69
2023/10/03 01:52:17;;;;;;;46.92;20.73;;;12.90;99.90;;;;;;4901229;29;20901;-69
2023/10/03 01:54:46;;;;;;;46.13;18.90;;;12.90;99.90;;;;;;4873962;29;20036;-69
2023/10/03 01:57:18;;;;;;;45.08;19.92;;;12.90;99.90;;;;;;4900834;29;20036;-67
2023/10/03 01:59:50;;;;;;;49.05;20.63;;;12.90;99.90;;;;;;4876392;29;20052;-69
2023/10/03 02:02:22;;;;;;;47.72;20.73;;;12.80;99.90;;;;;;4874291;29;20493;-69
2023/10/03 02:04:54;;;;;;;46.40;19.73;;;12.80;99.90;;;;;;4863754;29;20428;-68
2023/10/03 02:07:23;;;;;;;47.67;20.88;;;12.80;99.90;;;;;;4883723;29;20060;-69
2023/10/03 02:09:51;;;;;;;45.83;20.38;;;12.80;99.90;;;;;;4877267;29;20045;-68
2023/10/03 02:12:23;;;;;;;42.55;20.05;;;12.70;99.90;;;;;;4881214;29;20059;-70
2023/10/03 02:14:55;;;;;;;44.60;20.52;;;12.70;99.90;;;;;;4881924;29;20060;-70
2023/10/03 02:17:22;;;;;;;46.20;19.67;;;12.60;99.90;;;;;;4879755;29;20100;-68
2023/10/03 02:19:54;;;;;;;45.30;22.30;;;12.60;99.90;;;;;;4884054;29;20409;-69
2023/10/03 02:22:26;;;;;;;44.55;19.08;;;12.50;99.90;;;;;;4882732;29;20037;-70
2023/10/03 02:24:58;;;;;;;41.85;19.77;;;12.50;99.90;;;;;;4875767;29;20044;-69
2023/10/03 02:27:29;;;;;;;43.10;19.48;;;12.50;99.90;;;;;;4881398;29;20068;-71
2023/10/03 02:30:07;;;;;;;40.55;18.38;;;12.50;99.90;;;;;;4881753;29;20061;-68
2023/10/03 02:32:41;;;;;;;39.03;16.55;;;12.40;99.90;;;;;;4881420;29;20084;-68
2023/10/03 02:35:14;;;;;;;39.67;16.58;;;12.40;99.90;;;;;;4875363;29;20044;-68
2023/10/03 02:37:47;;;;;;;42.10;18.30;;;12.40;99.90;;;;;;4884010;29;20092;-68
2023/10/03 02:40:22;;;;;;;39.33;16.70;;;12.30;99.90;;;;;;4877670;29;20036;-69
2023/10/03 02:42:55;;;;;;;37.33;16.70;;;12.30;99.90;;;;;;4883240;29;20089;-66
2023/10/03 02:45:30;;;;;;;44.88;17.65;;;12.30;99.90;;;;;;4874953;29;20095;-68
2023/10/03 02:48:14;;;;;;;40.70;17.17;;;12.20;99.90;;;;;;4884080;29;20514;-69
2023/10/03 02:50:48;;;;;;;33.92;15.10;;;12.20;99.90;;;;;;4881320;29;20053;-66
2023/10/03 02:53:19;;;;;;;35.40;15.88;;;12.10;99.90;;;;;;4876349;29;20033;-68
2023/10/03 02:55:48;;;;;;;40.42;17.42;;;12.10;99.90;;;;;;4887631;29;20107;-68
2023/10/03 02:58:21;;;;;;;44.92;17.35;;;12.10;99.90;;;;;;4877327;29;20041;-69
2023/10/03 03:00:54;;;;;;;42.58;18.60;;;12.10;99.90;;;;;;4869258;29;20067;-68
2023/10/03 03:03:32;;;;;;;43.10;17.40;;;12.10;99.90;;;;;;4857816;29;20032;-68
2023/10/03 03:06:11;;;;;;;42.03;18.08;;;12.10;99.90;;;;;;4895684;29;20522;-67
2023/10/03 03:08:45;;;;;;;44.10;19.38;;;12.10;99.90;;;;;;4875466;29;20527;-70
2023/10/03 03:11:18;;;;;;;46.05;20.02;;;12.10;99.90;;;;;;4868333;29;20509;-66
2023/10/03 03:13:46;;;;;;;39.97;16.67;;;12.20;99.90;;;;;;4895120;29;20045;-69
2023/10/03 03:16:18;;;;;;;39.80;17.88;;;12.20;99.90;;;;;;4876713;29;20049;-69
2023/10/03 03:18:54;;;;;;;37.72;16.70;;;12.20;99.90;;;;;;4881045;29;20048;-70
2023/10/03 03:21:26;;;;;;;44.30;19.23;;;12.20;99.90;;;;;;4896156;29;20047;-68
2023/10/03 03:24:08;;;;;;;39.55;16.80;;;12.20;99.90;;;;;;4879980;29;20045;-70
2023/10/03 03:26:46;;;;;;;38.45;16.88;;;12.20;99.90;;;;;;4894224;29;20052;-68
2023/10/03 03:29:22;;;;;;;39.13;16.35;;;12.20;99.90;;;;;;4882494;29;20067;-69
2023/10/03 03:31:54;;;;;;;41.72;18.23;;;12.10;99.90;;;;;;4881335;29;20056;-68
2023/10/03 03:34:21;;;;;;;42.33;17.35;;;12.10;99.90;;;;;;4892908;29;20391;-70
2023/10/03 03:36:55;;;;;;;38.05;16.67;;;12.10;99.90;;;;;;4878653;29;20049;-68
2023/10/03 03:39:27;;;;;;;47.83;19.55;;;12.10;99.90;;;;;;4884996;29;20036;-69
2023/10/03 03:41:59;;;;;;;39.28;17.75;;;12.10;99.90;;;;;;4895398;29;20045;-70
2023/10/03 03:44:25;;;;;;;41.17;17.98;;;12.10;99.90;;;;;;4890124;29;20136;-68
2023/10/03 03:46:57;;;;;;;40.88;17.45;;;12.00;99.90;;;;;;4893324;29;20053;-69
2023/10/03 03:49:30;;;;;;;32.63;15.48;;;12.10;99.90;;;;;;4895930;29;20052;-69
2023/10/03 03:52:01;;;;;;;40.17;16.73;;;12.10;99.90;;;;;;4895102;29;20057;-69
2023/10/03 03:54:34;;;;;;;45.35;18.10;;;12.00;99.90;;;;;;4893094;29;20037;-69
2023/10/03 03:57:06;;;;;;;40.97;16.58;;;12.00;99.90;;;;;;4891664;29;20051;-69
2023/10/03 03:59:38;;;;;;;37.90;15.95;;;12.00;99.90;;;;;;4883264;29;20052;-69
2023/10/03 04:02:10;;;;;;;25.05;11.80;;;12.00;99.90;;;;;;4892541;29;20855;-69
2023/10/03 04:04:41;;;;;;;35.97;14.77;;;12.20;99.90;;;;;;4899578;29;20047;-68
2023/10/03 04:07:13;;;;;;;41.30;16.50;;;12.70;99.90;;;;;;4880793;29;20051;-69
2023/10/03 04:09:45;;;;;;;23.85;9.50;;;13.00;99.90;;;;;;4894625;29;20040;-69
2023/10/03 04:12:18;;;;;;;19.50;8.93;;;13.30;99.90;;;;;;4875230;29;20060;-68
2023/10/03 04:14:50;;;;;;;17.20;8.43;;;13.90;99.90;;;;;;4897425;29;20042;-67
2023/10/03 04:17:22;;;;;;;18.88;9.50;;;14.60;99.90;;;;;;4879427;29;20074;-67
2023/10/03 04:19:54;;;;;;;20.27;8.38;;;15.10;99.90;;;;;;4894121;29;20116;-68
2023/10/03 04:22:30;;;;;;;18.65;8.98;;;15.60;99.90;;;;;;4895693;29;20092;-68
2023/10/03 04:24:57;;;;;;;21.80;8.75;;;15.70;99.90;;;;;;4895082;29;20052;-68
2023/10/03 04:27:29;;;;;;;17.15;8.77;;;15.90;99.90;;;;;;4898671;29;20070;-70
2023/10/03 04:30:03;;;;;;;20.77;10.73;;;16.10;99.90;;;;;;4890948;29;20573;-69
2023/10/03 04:32:35;;;;;;;24.33;9.85;;;16.20;99.90;;;;;;4880957;29;20159;-69
2023/10/03 04:35:11;;;;;;;20.33;9.52;;;16.20;99.90;;;;;;4891073;29;20041;-71
2023/10/03 04:37:44;;;;;;;19.73;8.95;;;16.30;99.90;;;;;;4896983;29;20041;-69
2023/10/03 04:40:21;;;;;;;21.85;9.55;;;16.40;99.90;;;;;;4891312;29;20099;-69
2023/10/03 04:43:05;;;;;;;22.85;9.18;;;16.50;99.90;;;;;;4891937;29;20040;-70
2023/10/03 04:45:44;;;;;;;20.67;10.27;;;16.50;99.90;;;;;;4891833;29;20048;-69
2023/10/03 04:48:16;;;;;;;16.38;8.55;;;16.50;99.90;;;;;;4894578;29;20041;-68
2023/10/03 04:50:48;;;;;;;17.33;8.68;;;16.40;99.90;;;;;;4882222;29;20045;-70
2023/10/03 04:53:20;;;;;;;19.35;9.40;;;16.50;99.90;;;;;;4892000;29;20528;-68
2023/10/03 04:55:52;;;;;;;20.52;9.30;;;16.70;99.90;;;;;;4890736;29;20047;-68
2023/10/03 04:58:19;;;;;;;21.25;9.70;;;16.90;99.90;;;;;;4877510;29;20167;-69
2023/10/03 05:00:51;;;;;;;20.08;9.65;;;17.00;99.90;;;;;;4881953;29;20140;-70
2023/10/03 05:03:24;;;;;;;19.90;9.95;;;17.00;99.90;;;;;;4875362;29;20044;-68
2023/10/03 05:05:56;;;;;;;18.85;9.43;;;17.00;99.90;;;;;;4878126;29;20049;-67
2023/10/03 05:08:22;;;;;;;18.50;9.02;;;17.00;99.90;;;;;;4890763;29;20076;-69
2023/10/03 05:10:54;;;;;;;17.90;10.38;;;17.10;99.90;;;;;;4878189;29;20112;-68
2023/10/03 05:13:26;;;;;;;19.38;9.80;;;17.10;99.90;;;;;;4881223;29;20048;-68
2023/10/03 05:15:58;;;;;;;20.10;8.82;;;17.20;99.90;;;;;;4891874;29;20040;-68
2023/10/03 05:18:30;;;;;;;20.00;9.30;;;17.30;99.90;;;;;;4897841;29;20049;-68
2023/10/03 05:21:03;;;;;;;18.10;9.47;;;17.40;99.90;;;;;;4881691;29;20041;-68
2023/10/03 05:23:35;;;;;;;21.40;9.45;;;17.50;99.90;;;;;;4897256;29;20041;-69
2023/10/03 05:26:07;;;;;;;18.10;8.55;;;17.50;99.90;;;;;;4886126;29;20476;-68
2023/10/03 05:28:39;;;;;;;17.45;8.98;;;17.60;99.90;;;;;;4896327;29;20147;-69
2023/10/03 05:31:15;;;;;;;18.65;9.80;;;17.60;99.90;;;;;;4878825;29;20056;-68
2023/10/03 05:33:46;;;;;;;19.88;9.10;;;17.60;99.90;;;;;;4895308;29;20055;-68
2023/10/03 05:36:16;;;;;;;17.73;8.85;;;17.60;99.90;;;;;;4897037;29;20051;-68
2023/10/03 05:38:48;;;;;;;20.98;9.88;;;17.70;99.90;;;;;;4890597;29;20498;-69
2023/10/03 05:41:21;;;;;;;17.33;8.98;;;17.70;99.90;;;;;;4880348;29;20054;-68
2023/10/03 05:43:53;;;;;;;16.83;9.18;;;17.70;99.90;;;;;;4894711;29;20127;-71
2023/10/03 05:46:25;;;;;;;16.52;8.88;;;17.80;99.90;;;;;;4898054;29;20044;-69
2023/10/03 05:48:57;;;;;;;15.63;7.93;;;17.80;99.90;;;;;;4896168;29;20141;-69
2023/10/03 05:51:29;;;;;;;16.35;8.95;;;17.80;99.90;;;;;;4881679;29;20040;-69
2023/10/03 05:54:02;;;;;;;13.15;7.65;;;17.90;99.90;;;;;;4887131;29;20049;-68
2023/10/03 05:56:33;;;;;;;16.00;8.80;;;17.90;99.90;;;;;;4895955;29;20037;-68
2023/10/03 05:59:07;;;;;;;15.43;8.88;;;17.90;99.90;;;;;;4899371;29;20040;-69
2023/10/03 06:01:40;;;;;;;;;;;18.00;99.90;;;;;;4891057;29;20539;-68
2023/10/03 06:04:11;;;;;;;16.48;8.40;;;18.00;99.90;;;;;;4896434;29;19927;-69
2023/10/03 06:06:43;;;;;;;17.30;9.32;;;18.10;99.90;;;;;;4887055;29;20386;-70
2023/10/03 06:09:15;;;;;;;12.32;7.55;;;18.10;99.90;;;;;;4875495;29;20059;-68
2023/10/03 06:11:48;;;;;;;15.35;8.18;;;18.20;99.90;;;;;;4892120;29;20047;-68
2023/10/03 06:14:21;;;;;;;15.20;8.57;;;18.20;99.90;;;;;;4890864;29;20044;-69
2023/10/03 06:16:53;;;;;;;13.63;8.68;;;18.20;99.90;;;;;;4884178;29;20151;-69
2023/10/03 06:19:25;;;;;;;13.55;8.05;;;18.20;99.90;;;;;;4879629;29;20676;-70
2023/10/03 06:21:56;;;;;;;16.73;8.10;;;18.30;99.90;;;;;;4884805;29;20043;-69
2023/10/03 06:24:25;;;;;;;16.20;7.95;;;18.40;99.90;;;;;;4898589;29;21549;-69
2023/10/03 06:26:57;;;;;;;13.63;6.90;;;18.40;99.90;;;;;;4895667;29;20520;-69
2023/10/03 06:29:29;;;;;;;11.55;7.32;;;18.50;99.90;;;;;;4895943;29;20566;-68
2023/10/03 06:32:01;;;;;;;13.07;7.55;;;18.50;99.90;;;;;;4880574;29;20045;-69
2023/10/03 06:34:33;;;;;;;14.77;8.32;;;18.50;99.90;;;;;;4886597;29;20068;-67
2023/10/03 06:37:04;;;;;;;17.15;8.27;;;18.60;99.90;;;;;;4858955;29;20052;-68
2023/10/03 06:39:36;;;;;;;15.00;8.43;;;18.60;99.90;;;;;;4879081;29;20048;-69
2023/10/03 06:42:08;;;;;;;12.50;8.02;;;18.70;99.90;;;;;;4895430;29;20522;-69
2023/10/03 06:44:40;;;;;;;13.82;7.75;;;18.70;99.90;;;;;;4894913;29;20044;-69
2023/10/03 06:47:12;;;;;;;14.27;7.38;;;18.80;99.90;;;;;;4897400;29;20067;-70
2023/10/03 06:49:49;;;;;;;21.55;8.68;;;18.80;99.90;;;;;;4878663;29;20058;-71
2023/10/03 06:52:20;;;;;;;;;;;18.90;99.90;;;;;;4890243;29;20056;-68
2023/10/03 06:54:52;;;;;;;15.35;7.40;;;18.90;99.90;;;;;;4885704;29;20304;-70
2023/10/03 06:57:19;;;;;;;11.95;7.50;;;18.90;99.90;;;;;;4900624;29;20785;-68
2023/10/03 06:59:53;;;;;;;14.65;7.30;;;18.90;99.90;;;;;;4868423;29;20045;-69
2023/10/03 07:02:26;;;;;;;13.95;7.47;;;19.00;99.90;;;;;;4890533;29;20190;-68
2023/10/03 07:04:58;;;;;;;13.45;7.85;;;19.00;99.90;;;;;;4892235;29;20098;-68
2023/10/03 07:07:25;;;;;;;13.93;7.68;;;19.10;99.90;;;;;;4879620;29;20057;-69
2023/10/03 07:09:57;;;;;;;14.13;7.90;;;19.10;99.90;;;;;;4900546;29;20045;-69
2023/10/03 07:12:29;;;;;;;11.25;7.00;;;19.10;99.90;;;;;;4876928;29;20059;-69
2023/10/03 07:14:56;;;;;;;11.55;7.05;;;19.20;99.90;;;;;;4896238;29;20417;-70
2023/10/03 07:17:28;;;;;;;13.15;7.90;;;19.30;99.90;;;;;;4896596;29;20044;-70
2023/10/03 07:19:59;;;;;;;17.02;7.35;;;19.30;99.90;;;;;;4898249;29;20049;-66
2023/10/03 07:22:31;;;;;;;14.18;7.65;;;19.30;99.90;;;;;;4882370;29;20049;-68
2023/10/03 07:24:58;;;;;;;10.02;6.38;;;19.40;99.90;;;;;;4897722;29;20044;-68
2023/10/03 07:27:34;;;;;;;12.43;7.47;;;19.40;99.90;;;;;;4885265;29;20044;-70
2023/10/03 07:30:06;;;;;;;12.00;6.82;;;19.50;99.90;;;;;;4881660;29;20079;-70
2023/10/03 07:32:38;;;;;;;12.37;7.00;;;19.60;99.90;;;;;;4894103;29;20044;-70
2023/10/03 07:35:10;;;;;;;10.55;6.45;;;19.70;99.90;;;;;;4897486;29;20323;-69
2023/10/03 07:37:39;;;;;;;13.93;7.00;;;19.70;99.90;;;;;;4892799;29;20498;-68
2023/10/03 07:40:11;;;;;;;14.57;7.53;;;19.80;99.90;;;;;;4896858;29;20045;-68
2023/10/03 07:42:43;;;;;;;11.85;7.13;;;19.80;99.90;;;;;;4893044;29;20829;-68
2023/10/03 07:45:17;;;;;;;13.40;6.45;;;19.90;99.90;;;;;;4896604;29;20071;-70
2023/10/03 07:47:50;;;;;;;12.73;7.03;;;20.00;99.90;;;;;;4874266;29;20048;-71
2023/10/03 07:50:23;;;;;;;13.63;7.57;;;20.00;99.90;;;;;;4881465;29;20052;-68
2023/10/03 07:52:52;;;;;;;11.75;7.15;;;20.10;99.90;;;;;;4896265;29;20852;-68
2023/10/03 07:55:19;;;;;;;11.95;7.40;;;20.20;99.90;;;;;;4889026;29;20044;-70
2023/10/03 07:57:54;;;;;;;10.90;7.03;;;20.20;99.90;;;;;;4874533;29;20510;-68
2023/10/03 08:00:35;;;;;;;11.80;6.97;;;20.20;99.90;;;;;;5094340;27;20450;-70
2023/10/03 08:03:08;;;;;;;15.43;6.90;;;20.30;99.90;;;;;;5075110;28;20035;-70
2023/10/03 08:05:40;;;;;;;13.43;7.40;;;20.40;99.90;;;;;;5077311;28;20103;-70
2023/10/03 08:08:12;;;;;;;9.00;6.25;;;20.50;99.90;;;;;;5077926;28;20442;-71
2023/10/03 08:10:48;;;;;;;13.48;6.80;;;20.60;99.90;;;;;;5072402;28;20036;-68
2023/10/03 08:13:23;;;;;;;11.57;6.93;;;20.70;99.90;;;;;;5071610;28;20041;-70
2023/10/03 08:15:55;;;;;;;11.95;6.63;;;20.80;99.90;;;;;;5068658;28;20041;-69
2023/10/03 08:18:27;;;;;;;10.48;6.22;;;20.90;99.90;;;;;;5070324;28;20040;-70
2023/10/03 08:20:53;;;;;;;11.85;6.47;;;21.00;99.90;;;;;;5069479;28;20039;-71
2023/10/03 08:23:20;;;;;;;12.20;6.75;;;21.10;99.90;;;;;;5072592;28;20079;-70
2023/10/03 08:26:01;;;;;;;10.38;6.75;;;21.20;99.90;;;;;;5078370;28;20069;-70
2023/10/03 08:28:34;;;;;;;11.23;6.93;;;21.30;99.90;;;;;;5066033;28;20064;-70
2023/10/03 08:31:07;;;;;;;12.20;7.45;;;21.40;99.90;;;;;;5074501;28;20110;-70
2023/10/03 08:33:36;;;;;;;13.30;6.30;;;21.50;99.90;;;;;;5076023;28;20044;-70
2023/10/03 08:36:14;;;;;;;10.82;5.97;;;21.60;99.90;;;;;;5069613;28;20048;-69
2023/10/03 08:38:44;;;;;;;8.98;6.53;;;21.60;99.90;;;;;;5072959;28;20040;-70
2023/10/03 08:41:30;;;;;;;13.38;6.95;;;21.70;99.90;;;;;;5075927;28;20440;-70
2023/10/03 08:44:06;;;;;;;10.05;6.35;;;21.80;99.90;;;;;;5078704;28;20037;-71
2023/10/03 08:46:58;;;;;;;12.57;7.43;;;21.90;99.90;;;;;;5067787;28;20024;-71
2023/10/03 08:49:38;;;;;;;9.95;5.70;;;22.00;99.90;;;;;;5066477;28;20048;-69
2023/10/03 08:52:10;;;;;;;11.52;6.47;;;22.10;99.90;;;;;;5065479;28;20036;-69
2023/10/03 08:54:43;;;;;;;12.38;6.78;;;22.10;99.90;;;;;;5083823;28;20048;-70
2023/10/03 08:57:10;;;;;;;22.08;8.73;;;22.10;99.90;;;;;;5069789;28;20378;-70
2023/10/03 08:59:46;;;;;;;8.48;5.57;;;22.20;99.90;;;;;;5071567;28;20036;-68
2023/10/03 09:02:24;;;;;;;10.48;6.38;;;22.30;99.90;;;;;;5069460;28;20423;-70
2023/10/03 09:04:56;;;;;;;9.38;6.20;;;22.40;99.90;;;;;;5073307;28;20047;-70
2023/10/03 09:07:25;;;;;;;9.00;5.38;;;22.40;99.90;;;;;;5070989;28;20040;-70
2023/10/03 09:09:53;;;;;;;9.18;5.78;;;22.50;99.90;;;;;;5067766;28;20151;-70
2023/10/03 09:12:20;;;;;;;10.90;6.38;;;22.60;99.90;;;;;;5056667;28;20044;-70
2023/10/03 09:14:53;;;;;;;10.60;6.05;;;22.60;99.90;;;;;;5061299;28;20040;-70
2023/10/03 09:17:25;;;;;;;8.82;5.80;;;22.70;99.90;;;;;;5053772;28;20562;-71
2023/10/03 09:20:04;;;;;;;10.38;6.53;;;22.70;99.90;;;;;;5066231;28;20040;-70
2023/10/03 09:22:30;;;;;;;12.25;6.13;;;22.80;99.90;;;;;;5054651;28;20124;-70
2023/10/03 09:24:58;;;;;;;9.02;6.03;;;22.80;99.90;;;;;;5061269;28;20065;-69
2023/10/03 09:27:31;;;;;;;12.40;6.20;;;22.90;99.90;;;;;;5062166;28;20119;-69
2023/10/03 09:30:12;;;;;;;14.50;5.55;;;23.00;99.90;;;;;;5064724;28;20767;-70
2023/10/03 09:32:48;;;;;;;11.60;5.82;;;23.10;99.90;;;;;;5061165;28;20706;-69
2023/10/03 09:35:20;;;;;;;10.02;6.20;;;23.20;99.90;;;;;;5056716;28;20048;-68
2023/10/03 09:37:48;;;;;;;11.10;6.53;;;23.20;99.90;;;;;;5059260;28;20033;-68
2023/10/03 09:40:21;;;;;;;9.60;5.80;;;23.30;99.90;;;;;;5056881;28;20037;-68
2023/10/03 09:42:55;;;;;;;9.88;5.85;;;23.30;99.90;;;;;;5044104;28;20037;-68
2023/10/03 09:45:27;;;;;;;11.05;6.13;;;23.30;99.90;;;;;;5054051;28;20033;-70
2023/10/03 09:48:05;;;;;;;9.27;5.38;;;23.30;99.90;;;;;;5053064;28;20516;-70
2023/10/03 09:50:39;;;;;;;8.95;6.03;;;23.40;99.90;;;;;;5053984;28;20094;-68
2023/10/03 09:53:16;;;;;;;10.70;5.95;;;23.50;99.90;;;;;;5058962;28;20051;-70
2023/10/03 09:55:49;;;;;;;9.90;6.22;;;23.50;99.90;;;;;;5057949;28;20120;-70
2023/10/03 09:58:25;;;;;;;9.77;5.47;;;23.60;99.90;;;;;;5056156;28;20115;-69
2023/10/03 10:00:58;;;;;;;12.15;5.78;;;23.70;99.90;;;;;;5061855;28;20086;-69
2023/10/03 10:03:38;;;;;;;9.52;5.78;;;23.70;99.90;;;;;;5058884;28;20407;-68
2023/10/03 10:06:37;;;;;;;9.77;6.03;;;23.70;99.90;;;;;;5060037;28;20040;-69
2023/10/03 10:09:13;;;;;;;9.75;5.47;;;23.80;99.90;;;;;;5059765;28;20391;-69
2023/10/03 10:12:18;;;;;;;10.15;6.05;;;23.80;99.90;;;;;;5064046;28;20048;-68
2023/10/03 10:17:55;;;;;;;9.48;6.57;;;24.10;99.90;;;;;;5060112;28;20534;-70
2023/10/03 10:20:32;;;;;;;8.70;5.38;;;24.10;99.90;;;;;;5060293;28;20424;-67
2023/10/03 10:23:12;;;;;;;9.73;5.75;;;24.20;99.90;;;;;;5063217;28;20117;-68
2023/10/03 10:25:57;;;;;;;9.25;6.80;;;24.10;99.90;;;;;;5058666;28;20037;-64
2023/10/03 10:28:34;;;;;;;11.15;6.88;;;24.10;99.90;;;;;;5063624;28;20123;-68
2023/10/03 10:31:16;;;;;;;10.57;5.55;;;23.90;99.90;;;;;;5060088;28;20063;-69
2023/10/03 10:33:49;;;;;;;7.82;5.47;;;23.80;99.90;;;;;;5062149;28;20516;-70
2023/10/03 10:36:22;;;;;;;9.65;5.88;;;23.70;99.90;;;;;;5061801;28;20060;-67
2023/10/03 10:38:54;;;;;;;7.50;5.15;;;23.50;99.90;;;;;;5064885;28;20046;-69
2023/10/03 10:41:29;;;;;;;9.77;6.03;;;23.40;99.90;;;;;;5061269;28;20044;-67
2023/10/03 10:44:08;;;;;;;8.32;5.68;;;23.30;99.90;;;;;;5061553;28;20032;-70
2023/10/03 10:46:45;;;;;;;10.00;5.03;;;23.30;99.90;;;;;;5063404;28;20041;-68
2023/10/03 10:49:36;;;;;;;8.15;5.40;;;23.20;99.90;;;;;;5066712;28;20032;-69
2023/10/03 10:52:09;;;;;;;10.52;5.65;;;23.10;99.90;;;;;;5066864;28;20512;-68
2023/10/03 10:54:42;;;;;;;9.50;6.55;;;23.10;99.90;;;;;;5060939;28;20055;-69
2023/10/03 10:57:15;;;;;;;8.20;4.82;;;23.00;99.90;;;;;;5055804;28;20051;-70
2023/10/03 10:59:47;;;;;;;7.93;5.32;;;23.20;99.90;;;;;;5057209;28;20041;-68
2023/10/03 11:02:27;;;;;;;11.15;5.20;;;23.50;99.90;;;;;;5062396;28;20037;-70
2023/10/03 11:04:59;;;;;;;10.50;5.28;;;23.80;99.90;;;;;;5058730;28;20058;-70
2023/10/03 11:07:33;;;;;;;10.27;4.57;;;24.00;99.90;;;;;;5061094;28;20037;-69
2023/10/03 11:10:12;;;;;;;7.30;4.95;;;24.20;99.90;;;;;;5059498;28;20042;-69
2023/10/03 11:12:56;;;;;;;7.93;5.10;;;24.20;99.90;;;;;;5064522;28;20163;-68
2023/10/03 11:15:28;;;;;;;8.68;4.80;;;24.40;99.90;;;;;;5064746;28;20045;-70
2023/10/03 11:18:00;;;;;;;7.10;5.18;;;24.40;99.90;;;;;;5065624;28;20155;-68
2023/10/03 11:20:32;;;;;;;8.40;5.18;;;24.40;99.90;;;;;;5062458;28;20116;-69
2023/10/03 11:23:04;;;;;;;10.88;5.30;;;24.50;99.90;;;;;;5060776;28;20036;-69
2023/10/03 11:25:36;;;;;;;7.38;5.22;;;24.50;99.90;;;;;;5065737;28;20040;-69
2023/10/03 11:28:08;;;;;;;8.88;5.43;;;24.50;99.90;;;;;;5062726;28;20037;-69
2023/10/03 11:30:40;;;;;;;6.97;5.00;;;24.60;99.90;;;;;;5061209;28;20051;-69
2023/10/03 11:33:11;;;;;;;8.75;5.03;;;24.70;99.90;;;;;;5058875;28;20048;-67
2023/10/03 11:35:39;;;;;;;9.48;4.95;;;24.80;99.90;;;;;;5063889;28;20524;-69
2023/10/03 11:38:11;;;;;;;11.65;5.47;;;24.80;99.90;;;;;;5067037;28;20094;-70
2023/10/03 11:40:44;;;;;;;7.70;4.55;;;24.70;99.90;;;;;;5061724;28;20140;-69
2023/10/03 11:43:12;;;;;;;9.10;5.05;;;24.50;99.90;;;;;;5063272;28;20056;-68
2023/10/03 11:45:55;;;;;;;6.68;4.28;;;24.30;99.90;;;;;;5059309;28;20037;-69
2023/10/03 11:48:30;;;;;;;;;;;24.20;99.90;;;;;;5063225;28;20119;-68
2023/10/03 11:51:02;;;;;;;10.02;4.45;;;24.20;99.90;;;;;;5050469;28;20336;-68
2023/10/03 11:53:33;;;;;;;8.85;4.60;;;24.20;99.90;;;;;;5060003;28;20592;-69
2023/10/03 11:56:06;;;;;;;9.05;4.85;;;24.20;99.90;;;;;;5065093;28;20044;-69
2023/10/03 11:58:37;;;;;;;9.33;5.40;;;24.00;99.90;;;;;;5063228;28;20125;-69
2023/10/03 12:01:04;;;;;;;6.40;4.57;;;23.90;99.90;;;;;;5066406;28;20037;-69
2023/10/03 12:03:37;;;;;;;8.52;5.32;;;23.80;99.90;;;;;;5066568;28;20040;-67
2023/10/03 12:06:09;;;;;;;8.27;4.80;;;23.70;99.90;;;;;;5060117;28;20048;-67
2023/10/03 12:08:43;;;;;;;7.00;4.85;;;23.90;99.90;;;;;;5066560;28;20808;-67
2023/10/03 12:11:12;;;;;;;10.65;4.88;;;24.10;99.90;;;;;;5062530;28;20407;-69
2023/10/03 12:13:44;;;;;;;10.32;4.65;;;24.20;99.90;;;;;;5061458;28;20044;-70
2023/10/03 12:16:11;;;;;;;8.55;4.93;;;24.30;99.90;;;;;;5067825;28;20050;-68
2023/10/03 12:18:37;;;;;;;9.43;4.97;;;24.50;99.90;;;;;;5041002;28;20147;-69
2023/10/03 12:21:09;;;;;;;11.57;4.88;;;24.60;99.90;;;;;;5046709;28;20415;-68
2023/10/03 12:23:43;;;;;;;10.35;5.55;;;24.80;99.90;;;;;;5062933;28;20499;-68
2023/10/03 12:26:15;;;;;;;11.38;6.15;;;24.80;99.90;;;;;;5065995;28;20535;-68
2023/10/03 12:28:47;;;;;;;7.03;5.07;;;24.80;99.90;;;;;;5063874;28;20032;-69
2023/10/03 12:31:14;;;;;;;7.82;5.43;;;24.80;99.90;;;;;;5064019;28;21383;-68
2023/10/03 12:33:40;;;;;;;7.93;4.78;;;24.90;99.90;;;;;;5064041;28;20140;-69
2023/10/03 12:36:16;;;;;;;11.38;6.22;;;24.80;99.90;;;;;;5065356;28;20044;-67
2023/10/03 12:38:48;;;;;;;8.55;5.32;;;24.80;99.90;;;;;;5051446;28;20059;-67
2023/10/03 12:41:29;;;;;;;7.65;5.72;;;25.00;99.90;;;;;;5062671;28;20438;-69
2023/10/03 12:44:00;;;;;;;7.90;5.35;;;25.10;99.90;;;;;;5062882;28;20033;-68
2023/10/03 12:46:32;;;;;;;8.43;5.47;;;25.20;99.90;;;;;;5064672;28;20116;-69
2023/10/03 12:49:06;;;;;;;9.63;5.63;;;25.10;99.90;;;;;;5064862;28;20028;-68
2023/10/03 12:51:39;;;;;;;8.15;5.70;;;24.90;99.90;;;;;;5068964;28;20049;-68
2023/10/03 12:54:12;;;;;;;10.70;5.70;;;24.80;99.90;;;;;;5059143;28;20128;-67
2023/10/03 12:56:44;;;;;;;7.68;5.28;;;24.70;99.90;;;;;;5062707;28;20141;-69
2023/10/03 12:59:17;;;;;;;8.88;5.32;;;24.70;99.90;;;;;;5068453;28;20568;-68
2023/10/03 13:01:49;;;;;;;9.45;6.25;;;24.70;99.90;;;;;;5067270;28;20036;-69
2023/10/03 13:04:22;;;;;;;7.53;5.80;;;24.80;99.90;;;;;;5069647;28;20526;-68
2023/10/03 13:06:53;;;;;;;12.73;5.57;;;24.70;99.90;;;;;;5066571;28;20047;-68
2023/10/03 13:09:25;;;;;;;8.90;5.47;;;24.80;99.90;;;;;;5063466;28;20063;-69